createdAt,value
2023-03-29T00:00:14.202Z,5.58
2023-03-29T00:05:18.192Z,5.72
2023-03-29T00:10:24.138Z,5.62
2023-03-29T00:15:26.209Z,5.57
2023-03-29T00:20:28.983Z,5.67
2023-03-29T00:25:30.709Z,5.77
2023-03-29T00:30:32.326Z,5.71
2023-03-29T00:35:34.174Z,5.76
2023-03-29T00:40:42.454Z,5.72
2023-03-29T00:45:44.093Z,5.70
2023-03-29T00:50:52.820Z,5.55
2023-03-29T00:56:11.237Z,5.60
2023-03-29T01:01:17.632Z,5.61
2023-03-29T01:06:24.745Z,5.54
2023-03-29T01:11:36.048Z,5.39
2023-03-29T01:16:38.587Z,5.48
2023-03-29T01:21:47.933Z,5.57
2023-03-29T01:26:57.545Z,5.60
2023-03-29T01:32:11.956Z,5.50
2023-03-29T01:37:24.751Z,5.44
2023-03-29T01:42:38.340Z,5.50
2023-03-29T01:47:50.420Z,5.57
2023-03-29T01:53:14.548Z,5.57
2023-03-29T01:58:19.108Z,5.55
2023-03-29T02:03:26.631Z,5.51
2023-03-29T02:08:29.902Z,5.32
2023-03-29T02:13:32.297Z,5.17
2023-03-29T02:18:34.975Z,5.06
2023-03-29T02:23:46.745Z,4.97
2023-03-29T02:28:48.572Z,4.90
2023-03-29T02:33:53.127Z,4.84
2023-03-29T02:38:56.032Z,4.80
2023-03-29T02:43:59.612Z,4.78
2023-03-29T02:49:01.362Z,4.92
2023-03-29T02:54:15.551Z,5.09
2023-03-29T02:59:22.720Z,5.20
2023-03-29T03:04:25.535Z,5.16
2023-03-29T03:09:27.476Z,5.17
2023-03-29T03:14:29.515Z,5.20
2023-03-29T03:19:31.608Z,5.19
2023-03-29T03:24:33.598Z,5.16
2023-03-29T03:29:36.512Z,5.22
2023-03-29T03:34:38.698Z,5.23
2023-03-29T03:39:40.371Z,5.24
2023-03-29T03:44:42.608Z,5.33
2023-03-29T03:49:44.301Z,5.30
2023-03-29T03:54:46.768Z,5.29
2023-03-29T03:59:49.017Z,5.27
2023-03-29T04:04:50.793Z,5.23
2023-03-29T04:09:53.135Z,5.20
2023-03-29T04:14:54.823Z,5.04
2023-03-29T04:19:57.544Z,5.13
2023-03-29T04:24:59.198Z,5.19
2023-03-29T04:30:00.927Z,5.30
2023-03-29T04:35:04.834Z,5.33
2023-03-29T04:40:14.454Z,5.32
2023-03-29T04:45:18.241Z,5.31
2023-03-29T04:50:20.075Z,5.30
2023-03-29T04:55:21.698Z,5.26
2023-03-29T05:00:27.376Z,5.26
2023-03-29T05:05:29.026Z,5.41
2023-03-29T05:10:30.658Z,5.43
2023-03-29T05:15:32.806Z,5.40
2023-03-29T05:20:34.478Z,5.43
2023-03-29T05:25:36.172Z,5.52
2023-03-29T05:30:38.118Z,5.57
2023-03-29T05:35:39.899Z,5.61
2023-03-29T05:40:41.630Z,5.68
2023-03-29T05:45:43.434Z,5.67
2023-03-29T05:50:49.615Z,5.71
2023-03-29T05:55:51.681Z,5.73
2023-03-29T06:00:53.485Z,5.94
2023-03-29T06:05:58.165Z,6.04
2023-03-29T06:11:04.485Z,6.01
2023-03-29T06:16:07.375Z,6.18
2023-03-29T06:21:09.458Z,6.28
2023-03-29T06:26:11.110Z,6.28
2023-03-29T06:31:13.269Z,6.26
2023-03-29T06:36:16.898Z,6.21
2023-03-29T06:41:18.562Z,6.10
2023-03-29T06:46:20.275Z,6.07
2023-03-29T06:51:23.377Z,6.18
2023-03-29T06:56:25.952Z,6.30
2023-03-29T07:01:28.562Z,6.26
2023-03-29T07:06:31.141Z,6.28
2023-03-29T07:11:36.478Z,6.18
2023-03-29T07:16:38.437Z,6.32
2023-03-29T07:21:40.067Z,6.53
2023-03-29T07:26:52.264Z,6.68
2023-03-29T07:32:02.369Z,6.56
2023-03-29T07:37:03.983Z,6.54
2023-03-29T07:42:06.697Z,6.78
2023-03-29T07:47:08.408Z,7.08
2023-03-29T07:52:10.110Z,7.35
2023-03-29T07:57:12.237Z,7.52
2023-03-29T08:02:16.649Z,7.60
2023-03-29T08:07:20.043Z,7.51
2023-03-29T08:12:24.988Z,7.58
2023-03-29T08:17:26.799Z,7.57
2023-03-29T08:22:28.550Z,7.94
2023-03-29T08:27:33.426Z,8.65
2023-03-29T08:32:36.904Z,8.80
2023-03-29T08:37:38.750Z,8.76
2023-03-29T08:42:56.802Z,8.91
2023-03-29T08:48:04.245Z,9.13
2023-03-29T08:53:15.512Z,9.30
2023-03-29T08:58:21.221Z,9.46
2023-03-29T09:03:31.643Z,9.51
2023-03-29T09:08:40.251Z,9.75
2023-03-29T09:13:50.890Z,9.78
2023-03-29T09:18:59.264Z,9.87
2023-03-29T09:24:27.136Z,10.03
2023-03-29T09:29:41.190Z,10.47
2023-03-29T09:34:54.439Z,10.84
2023-03-29T09:39:57.629Z,11.03
2023-03-29T09:45:08.569Z,10.82
2023-03-29T09:50:30.263Z,10.81
2023-03-29T09:55:36.512Z,10.92
2023-03-29T10:07:00.731Z,11.17
2023-03-29T10:25:14.366Z,11.44
2023-03-29T10:30:23.123Z,11.26
2023-03-29T10:35:44.385Z,11.38
2023-03-29T10:40:48.150Z,11.50
2023-03-29T10:45:52.200Z,11.96
2023-03-29T10:50:57.385Z,12.03
2023-03-29T10:56:24.507Z,12.45
2023-03-29T11:08:07.297Z,13.65
2023-03-29T11:13:21.071Z,14.24
2023-03-29T11:18:28.859Z,14.25
2023-03-29T11:23:39.851Z,14.49
2023-03-29T11:28:57.735Z,14.49
2023-03-29T11:34:08.133Z,14.62
2023-03-29T11:39:55.927Z,14.67
2023-03-29T11:45:00.131Z,15.34
2023-03-29T11:50:15.563Z,15.58
2023-03-29T11:55:23.649Z,15.81
2023-03-29T12:00:31.017Z,15.88
2023-03-29T12:05:39.763Z,15.93
2023-03-29T12:10:48.073Z,15.79
2023-03-29T12:16:16.652Z,15.89
2023-03-29T12:21:23.306Z,16.27
2023-03-29T12:26:52.798Z,16.31
2023-03-29T12:38:28.721Z,16.62
2023-03-29T12:49:58.957Z,16.70
2023-03-29T12:55:04.520Z,16.80
2023-03-29T13:00:42.694Z,16.97
2023-03-29T13:05:44.560Z,16.85
2023-03-29T13:10:53.463Z,16.83
2023-03-29T13:15:56.299Z,16.84
2023-03-29T13:21:09.748Z,16.79
2023-03-29T15:20:51.486Z,16.43
2023-03-29T15:32:35.884Z,16.26
2023-03-29T15:37:37.888Z,16.33
2023-03-29T15:42:39.690Z,16.33
2023-03-29T15:47:41.360Z,16.36
2023-03-29T15:52:43.204Z,16.40
2023-03-29T15:57:48.596Z,16.62
2023-03-29T16:02:51.462Z,16.83
2023-03-29T16:07:53.086Z,16.83
2023-03-29T16:12:54.699Z,16.70
2023-03-29T16:17:56.616Z,16.62
2023-03-29T16:22:58.353Z,16.58
2023-03-29T16:27:59.998Z,16.54
2023-03-29T16:33:06.306Z,16.37
2023-03-29T16:50:52.479Z,15.79
2023-03-29T16:55:54.654Z,15.65
2023-03-29T17:00:57.182Z,15.48
2023-03-29T17:05:59.274Z,15.42
2023-03-29T17:11:01.455Z,15.34
2023-03-29T17:16:03.974Z,15.29
2023-03-29T17:21:06.292Z,15.11
2023-03-29T18:48:08.198Z,13.63
2023-03-29T18:54:33.318Z,13.02
2023-03-29T18:59:36.625Z,13.24
2023-03-29T19:04:38.572Z,13.18
2023-03-29T19:09:41.732Z,13.21
2023-03-29T19:14:43.596Z,13.05
2023-03-29T19:19:45.566Z,12.95
2023-03-29T19:24:47.370Z,12.91
2023-03-29T19:29:49.735Z,12.87
2023-03-29T19:34:52.251Z,12.78
2023-03-29T19:39:55.797Z,12.58
2023-03-29T19:44:57.520Z,12.62
2023-03-29T19:50:00.131Z,12.51
2023-03-29T19:55:02.261Z,12.49
2023-03-29T20:00:08.071Z,12.31
2023-03-29T20:05:15.702Z,12.25
2023-03-29T20:10:17.592Z,12.05
2023-03-29T20:15:19.480Z,11.92
2023-03-29T20:20:23.077Z,11.91
2023-03-29T20:25:24.999Z,11.99
2023-03-29T20:30:26.921Z,11.85
2023-03-29T20:35:28.775Z,11.71
2023-03-29T20:40:31.628Z,11.63
2023-03-29T20:45:46.188Z,11.65
2023-03-29T20:50:54.289Z,11.72
2023-03-29T20:55:56.006Z,11.75
2023-03-29T21:00:58.907Z,11.78
2023-03-29T21:06:02.352Z,11.68
2023-03-29T21:11:04.237Z,11.63
2023-03-29T21:16:06.992Z,11.58
2023-03-29T21:21:10.340Z,11.46
2023-03-29T21:26:12.068Z,11.40
2023-03-29T21:31:13.869Z,11.24
2023-03-29T21:36:15.855Z,11.27
2023-03-29T21:41:18.738Z,11.27
2023-03-29T21:46:20.660Z,11.30
2023-03-29T21:51:22.414Z,11.21
2023-03-29T21:56:24.127Z,11.14
2023-03-29T22:01:25.909Z,11.15
2023-03-29T22:06:27.636Z,11.03
2023-03-29T22:11:30.484Z,10.97
2023-03-29T22:16:32.438Z,10.94
2023-03-29T22:21:37.376Z,10.85
2023-03-29T22:26:39.195Z,10.82
2023-03-29T22:31:41.038Z,10.80
2023-03-29T22:36:42.772Z,10.82
2023-03-29T22:41:44.566Z,10.79
2023-03-29T22:46:46.820Z,10.70
2023-03-29T22:51:48.895Z,10.71
2023-03-29T22:56:51.050Z,10.75
2023-03-29T23:01:53.087Z,10.76
2023-03-29T23:06:54.906Z,10.69
2023-03-29T23:11:56.647Z,10.60
2023-03-29T23:16:58.396Z,10.56
2023-03-29T23:22:00.163Z,10.49
2023-03-29T23:27:03.019Z,10.38
2023-03-29T23:32:05.025Z,10.31
2023-03-29T23:37:06.755Z,10.22
2023-03-29T23:42:08.539Z,10.28
2023-03-29T23:47:10.254Z,10.36
2023-03-29T23:52:12.589Z,10.36
2023-03-29T23:57:14.345Z,10.30
